createdAt,value
2018-07-21T00:00:52.005Z,21.34
2018-07-21T00:03:20.704Z,21.37
2018-07-21T00:05:49.399Z,21.36
2018-07-21T00:08:18.059Z,21.38
2018-07-21T00:10:46.729Z,21.36
2018-07-21T00:13:15.362Z,21.31
2018-07-21T00:15:44.062Z,21.30
2018-07-21T00:18:12.816Z,21.26
2018-07-21T00:20:41.467Z,21.23
2018-07-21T00:23:10.200Z,21.19
2018-07-21T00:25:38.880Z,21.20
2018-07-21T00:28:07.534Z,21.19
2018-07-21T00:30:36.219Z,21.11
2018-07-21T00:33:04.934Z,21.08
2018-07-21T00:35:33.558Z,21.05
2018-07-21T00:38:02.227Z,21.03
2018-07-21T00:40:30.941Z,20.93
2018-07-21T00:42:59.666Z,20.87
2018-07-21T00:45:28.362Z,20.85
2018-07-21T00:47:56.996Z,20.79
2018-07-21T00:50:25.663Z,20.79
2018-07-21T00:52:54.305Z,20.73
2018-07-21T00:55:23.029Z,20.66
2018-07-21T00:57:51.698Z,20.61
2018-07-21T01:00:20.362Z,20.60
2018-07-21T01:02:49.018Z,20.52
2018-07-21T01:05:17.678Z,20.48
2018-07-21T01:07:46.547Z,20.40
2018-07-21T01:10:15.226Z,20.38
2018-07-21T01:12:43.852Z,20.36
2018-07-21T01:15:12.535Z,20.30
2018-07-21T01:17:41.339Z,20.28
2018-07-21T01:20:10.079Z,20.22
2018-07-21T01:22:38.757Z,20.14
2018-07-21T01:25:08.002Z,20.12
2018-07-21T01:27:36.650Z,20.06
2018-07-21T01:30:07.246Z,19.92
2018-07-21T01:32:35.887Z,19.82
2018-07-21T01:35:04.862Z,19.68
2018-07-21T01:37:33.483Z,19.57
2018-07-21T01:40:02.121Z,19.53
2018-07-21T01:42:30.788Z,19.43
2018-07-21T01:44:59.419Z,19.31
2018-07-21T01:47:28.190Z,19.24
2018-07-21T01:49:56.866Z,19.16
2018-07-21T01:52:25.542Z,19.05
2018-07-21T01:54:54.186Z,18.93
2018-07-21T01:57:22.826Z,18.82
2018-07-21T01:59:51.471Z,18.76
2018-07-21T02:02:20.108Z,18.69
2018-07-21T02:04:48.799Z,18.66
2018-07-21T02:07:17.439Z,18.64
2018-07-21T02:09:46.152Z,18.58
2018-07-21T02:12:14.874Z,18.58
2018-07-21T02:14:43.574Z,18.51
2018-07-21T02:17:12.318Z,18.44
2018-07-21T02:19:41.020Z,18.40
2018-07-21T02:22:09.780Z,18.36
2018-07-21T02:24:38.428Z,18.28
2018-07-21T02:27:07.312Z,18.22
2018-07-21T02:29:36.078Z,18.19
2018-07-21T02:32:04.753Z,18.09
2018-07-21T02:34:33.399Z,18.02
2018-07-21T02:37:02.032Z,17.97
2018-07-21T02:39:30.691Z,17.89
2018-07-21T02:41:59.396Z,17.85
2018-07-21T02:44:28.085Z,17.83
2018-07-21T02:46:56.716Z,17.81
2018-07-21T02:49:25.448Z,17.76
2018-07-21T02:51:54.098Z,17.77
2018-07-21T02:54:22.819Z,17.85
2018-07-21T02:56:51.490Z,17.83
2018-07-21T02:59:20.170Z,17.71
2018-07-21T03:01:49.138Z,17.67
2018-07-21T03:04:17.826Z,17.69
2018-07-21T03:06:46.490Z,17.64
2018-07-21T03:09:15.138Z,17.65
2018-07-21T03:11:43.836Z,17.65
2018-07-21T03:14:12.477Z,17.60
2018-07-21T03:16:41.099Z,17.61
2018-07-21T03:19:09.750Z,17.64
2018-07-21T03:21:38.433Z,17.74
2018-07-21T03:24:07.062Z,17.81
2018-07-21T03:26:35.692Z,17.88
2018-07-21T03:29:04.414Z,17.91
2018-07-21T03:31:33.064Z,17.82
2018-07-21T03:34:01.835Z,17.86
2018-07-21T03:36:30.494Z,17.93
2018-07-21T03:38:59.178Z,18.00
2018-07-21T03:41:27.800Z,18.05
2018-07-21T03:43:56.455Z,18.08
2018-07-21T03:46:25.093Z,18.11
2018-07-21T03:48:53.924Z,18.05
2018-07-21T03:51:22.607Z,18.05
2018-07-21T03:53:51.260Z,18.08
2018-07-21T03:56:20.029Z,18.02
2018-07-21T03:58:48.766Z,18.02
2018-07-21T04:01:17.402Z,18.02
2018-07-21T04:03:46.035Z,18.04
2018-07-21T04:06:14.715Z,17.99
2018-07-21T04:08:43.422Z,18.03
2018-07-21T04:11:12.100Z,18.08
2018-07-21T04:13:40.766Z,18.15
2018-07-21T04:16:09.380Z,18.21
2018-07-21T04:18:38.077Z,18.25
2018-07-21T04:21:06.796Z,18.34
2018-07-21T04:23:35.459Z,18.47
2018-07-21T04:26:04.112Z,18.62
2018-07-21T04:28:32.743Z,18.67
2018-07-21T04:31:01.489Z,18.71
2018-07-21T04:33:30.120Z,18.80
2018-07-21T04:35:58.786Z,18.86
2018-07-21T04:38:27.394Z,18.94
2018-07-21T04:40:56.067Z,18.95
2018-07-21T04:43:24.740Z,18.99
2018-07-21T04:45:53.332Z,19.09
2018-07-21T04:48:21.971Z,19.15
2018-07-21T04:50:50.634Z,19.23
2018-07-21T04:53:19.260Z,19.33
2018-07-21T04:55:47.896Z,19.45
2018-07-21T04:58:16.586Z,19.50
2018-07-21T05:00:45.310Z,19.64
2018-07-21T05:03:13.883Z,18.32
2018-07-21T05:05:42.628Z,20.01
2018-07-21T05:08:11.267Z,20.16
2018-07-21T05:10:39.939Z,20.40
2018-07-21T05:13:08.587Z,20.79
2018-07-21T05:15:37.230Z,21.25
2018-07-21T05:18:05.870Z,21.68
2018-07-21T05:20:34.522Z,22.07
2018-07-21T05:23:03.171Z,22.40
2018-07-21T05:25:31.837Z,22.81
2018-07-21T05:28:00.554Z,23.09
2018-07-21T05:30:29.350Z,23.31
2018-07-21T05:32:58.007Z,23.73
2018-07-21T05:35:26.791Z,24.05
2018-07-21T05:37:55.550Z,24.20
2018-07-21T05:40:24.219Z,24.55
2018-07-21T05:42:52.861Z,24.86
2018-07-21T05:45:21.543Z,25.25
2018-07-21T05:47:50.178Z,25.71
2018-07-21T05:50:18.840Z,26.13
2018-07-21T05:52:47.603Z,26.27
2018-07-21T05:55:16.338Z,26.22
2018-07-21T05:57:45.009Z,26.02
2018-07-21T06:00:14.486Z,26.27
2018-07-21T06:02:43.643Z,26.50
2018-07-21T06:05:12.275Z,26.59
2018-07-21T06:07:40.939Z,26.76
2018-07-21T06:10:09.679Z,26.82
2018-07-21T06:12:38.456Z,26.58
2018-07-21T06:15:07.293Z,27.02
2018-07-21T06:17:36.090Z,27.23
2018-07-21T06:20:05.758Z,27.30
2018-07-21T06:22:34.511Z,27.54
2018-07-21T06:25:03.291Z,27.97
2018-07-21T06:27:31.981Z,28.46
2018-07-21T06:30:00.875Z,28.42
2018-07-21T06:32:29.543Z,28.19
2018-07-21T06:34:58.220Z,28.02
2018-07-21T06:37:26.955Z,27.53
2018-07-21T06:39:55.581Z,27.52
2018-07-21T06:42:24.284Z,27.81
2018-07-21T06:44:52.945Z,28.13
2018-07-21T06:47:21.581Z,28.39
2018-07-21T06:49:50.257Z,28.41
2018-07-21T06:52:19.224Z,28.87
2018-07-21T06:54:47.935Z,29.25
2018-07-21T06:57:16.590Z,29.38
2018-07-21T06:59:45.228Z,29.66
2018-07-21T07:02:13.923Z,29.93
2018-07-21T07:04:42.611Z,30.59
2018-07-21T07:07:11.345Z,30.81
2018-07-21T07:09:40.023Z,30.32
2018-07-21T07:12:08.750Z,30.35
2018-07-21T07:14:37.368Z,30.27
2018-07-21T07:17:06.078Z,30.74
2018-07-21T07:19:34.735Z,30.67
2018-07-21T07:22:03.495Z,30.10
2018-07-21T07:24:32.211Z,30.36
2018-07-21T07:27:00.884Z,30.44
2018-07-21T07:29:29.564Z,30.15
2018-07-21T07:31:58.275Z,30.10
2018-07-21T07:34:27.019Z,30.80
2018-07-21T07:36:55.688Z,30.69
2018-07-21T07:39:24.339Z,30.53
2018-07-21T07:41:53.219Z,30.40
2018-07-21T07:44:21.967Z,30.90
2018-07-21T07:46:50.648Z,31.48
2018-07-21T07:49:19.338Z,31.88
2018-07-21T07:51:48.010Z,31.15
2018-07-21T07:54:16.697Z,30.96
2018-07-21T07:56:45.379Z,30.52
2018-07-21T07:59:14.000Z,30.47
2018-07-21T08:01:42.770Z,31.00
2018-07-21T08:04:11.418Z,30.29
2018-07-21T08:06:40.099Z,30.65
2018-07-21T08:09:11.078Z,30.63
2018-07-21T08:11:39.771Z,30.88
2018-07-21T08:14:08.518Z,31.55
2018-07-21T08:16:37.207Z,32.23
2018-07-21T08:19:06.462Z,31.84
2018-07-21T08:21:35.172Z,31.96
2018-07-21T08:24:03.925Z,31.41
2018-07-21T08:26:32.630Z,31.79
2018-07-21T08:29:01.594Z,32.32
2018-07-21T08:31:30.272Z,32.24
2018-07-21T08:33:58.929Z,32.68
2018-07-21T08:36:27.569Z,33.48
2018-07-21T08:38:56.228Z,32.66
2018-07-21T08:41:24.888Z,32.75
2018-07-21T08:43:53.540Z,33.26
2018-07-21T08:46:22.187Z,33.65
2018-07-21T08:48:50.802Z,33.19
2018-07-21T08:51:20.329Z,32.16
2018-07-21T08:53:48.981Z,32.04
2018-07-21T08:56:17.671Z,32.08
2018-07-21T08:58:46.310Z,32.14
2018-07-21T09:01:14.990Z,32.89
2018-07-21T09:03:43.746Z,33.57
2018-07-21T09:06:12.463Z,33.61
2018-07-21T09:08:41.099Z,33.19
2018-07-21T09:11:09.782Z,32.47
2018-07-21T09:13:38.476Z,32.28
2018-07-21T09:16:07.148Z,32.42
2018-07-21T09:18:35.790Z,32.02
2018-07-21T09:21:04.441Z,32.20
2018-07-21T09:23:33.168Z,31.97
2018-07-21T09:26:01.851Z,31.58
2018-07-21T09:28:30.506Z,32.57
2018-07-21T09:30:59.183Z,32.93
2018-07-21T09:33:27.822Z,32.00
2018-07-21T09:35:56.507Z,32.02
2018-07-21T09:38:25.144Z,32.09
2018-07-21T09:40:53.810Z,32.25
2018-07-21T09:43:22.479Z,32.41
2018-07-21T09:45:51.834Z,32.72
2018-07-21T09:48:20.532Z,32.45
2018-07-21T09:50:49.214Z,32.59
2018-07-21T09:53:17.856Z,32.68
2018-07-21T09:55:46.575Z,32.98
2018-07-21T09:58:15.186Z,32.24
2018-07-21T10:00:49.030Z,32.13
2018-07-21T10:03:17.653Z,32.18
2018-07-21T10:05:46.319Z,32.25
2018-07-21T10:08:14.987Z,32.82
2018-07-21T10:10:43.668Z,33.04
2018-07-21T10:13:12.328Z,33.22
2018-07-21T10:15:40.964Z,33.84
2018-07-21T10:18:09.650Z,33.98
2018-07-21T10:20:38.380Z,33.42
2018-07-21T10:23:07.072Z,32.67
2018-07-21T10:25:40.941Z,32.76
2018-07-21T10:28:14.865Z,32.67
2018-07-21T10:30:43.546Z,33.19
2018-07-21T10:33:13.133Z,33.83
2018-07-21T10:35:41.762Z,33.73
2018-07-21T10:38:10.495Z,33.94
2018-07-21T10:40:39.162Z,33.63
2018-07-21T10:43:07.795Z,33.60
2018-07-21T10:45:36.458Z,33.66
2018-07-21T10:48:05.148Z,33.51
2018-07-21T10:50:33.839Z,33.68
2018-07-21T10:53:02.475Z,33.16
2018-07-21T10:55:31.183Z,33.48
2018-07-21T10:57:59.890Z,33.41
2018-07-21T11:00:28.543Z,33.45
2018-07-21T11:02:57.280Z,34.22
2018-07-21T11:05:25.997Z,34.11
2018-07-21T11:07:54.760Z,34.84
2018-07-21T11:10:23.431Z,34.63
2018-07-21T11:12:52.060Z,33.83
2018-07-21T11:15:21.691Z,34.01
2018-07-21T11:17:50.390Z,34.20
2018-07-21T11:20:19.051Z,33.85
2018-07-21T11:22:47.761Z,32.81
2018-07-21T11:25:16.415Z,33.06
2018-07-21T11:27:45.120Z,33.77
2018-07-21T11:30:13.814Z,33.46
2018-07-21T11:32:42.542Z,33.16
2018-07-21T11:35:11.361Z,34.10
2018-07-21T11:37:39.954Z,33.95
2018-07-21T11:40:08.661Z,33.67
2018-07-21T11:42:37.442Z,33.72
2018-07-21T11:45:06.552Z,33.96
2018-07-21T11:47:35.384Z,33.68
2018-07-21T11:50:04.138Z,34.45
2018-07-21T11:52:33.902Z,34.72
2018-07-21T11:55:02.681Z,34.17
2018-07-21T11:57:31.355Z,33.77
2018-07-21T12:00:00.400Z,34.22
2018-07-21T12:02:29.373Z,33.43
2018-07-21T12:04:58.226Z,32.81
2018-07-21T12:07:26.984Z,32.67
2018-07-21T12:09:55.595Z,33.04
2018-07-21T12:12:24.296Z,32.74
2018-07-21T12:14:52.939Z,32.86
2018-07-21T12:17:21.974Z,32.88
2018-07-21T12:19:50.616Z,32.58
2018-07-21T12:22:19.276Z,32.46
2018-07-21T12:24:47.933Z,32.16
2018-07-21T12:27:16.639Z,32.58
2018-07-21T12:29:45.299Z,32.27
2018-07-21T12:32:13.971Z,32.80
2018-07-21T12:34:42.656Z,32.71
2018-07-21T12:37:11.348Z,32.26
2018-07-21T12:39:40.012Z,32.04
2018-07-21T12:42:08.774Z,32.13
2018-07-21T12:44:37.475Z,32.18
2018-07-21T12:47:06.231Z,31.47
2018-07-21T12:49:34.918Z,31.39
2018-07-21T12:52:04.456Z,31.24
2018-07-21T12:54:33.114Z,31.25
2018-07-21T12:57:01.746Z,31.23
2018-07-21T12:59:30.416Z,31.36
2018-07-21T13:01:59.066Z,31.57
2018-07-21T13:04:28.690Z,31.13
2018-07-21T13:06:57.394Z,30.82
2018-07-21T13:09:26.034Z,30.76
2018-07-21T13:11:54.760Z,30.64
2018-07-21T13:14:23.554Z,30.61
2018-07-21T13:16:52.347Z,30.41
2018-07-21T13:19:21.104Z,30.43
2018-07-21T13:21:49.816Z,30.64
2018-07-21T13:24:18.471Z,30.82
2018-07-21T13:26:47.178Z,31.43
2018-07-21T13:29:15.822Z,31.95
2018-07-21T13:31:44.518Z,32.71
2018-07-21T13:34:13.145Z,32.89
2018-07-21T13:36:41.794Z,33.59
2018-07-21T13:39:12.039Z,34.23
2018-07-21T13:41:40.948Z,34.78
2018-07-21T13:44:09.860Z,35.14
2018-07-21T13:46:38.546Z,35.14
2018-07-21T13:49:07.235Z,34.16
2018-07-21T13:51:35.950Z,32.24
2018-07-21T13:54:04.803Z,30.75
2018-07-21T13:56:33.471Z,30.08
2018-07-21T13:59:02.082Z,29.92
2018-07-21T14:01:30.779Z,29.78
2018-07-21T14:03:59.403Z,29.78
2018-07-21T14:06:28.108Z,29.64
2018-07-21T14:08:56.745Z,29.41
2018-07-21T14:11:25.444Z,29.41
2018-07-21T14:13:54.133Z,29.34
2018-07-21T14:16:22.811Z,29.40
2018-07-21T14:18:51.588Z,29.54
2018-07-21T14:21:20.275Z,29.61
2018-07-21T14:23:48.964Z,29.45
2018-07-21T14:26:17.692Z,29.33
2018-07-21T14:28:46.337Z,29.41
2018-07-21T14:31:15.029Z,29.39
2018-07-21T14:33:43.747Z,29.22
2018-07-21T14:36:12.497Z,29.18
2018-07-21T14:38:41.091Z,29.08
2018-07-21T14:41:09.776Z,29.05
2018-07-21T14:43:38.443Z,29.06
2018-07-21T14:46:07.238Z,29.08
2018-07-21T14:48:35.966Z,29.03
2018-07-21T14:51:04.620Z,29.02
2018-07-21T14:53:34.076Z,29.09
2018-07-21T14:56:02.713Z,29.15
2018-07-21T14:58:31.464Z,29.12
2018-07-21T15:01:00.179Z,29.07
2018-07-21T15:03:28.926Z,29.07
2018-07-21T15:05:57.612Z,29.06
2018-07-21T15:08:26.297Z,29.09
2018-07-21T15:10:54.991Z,29.09
2018-07-21T15:13:23.632Z,29.10
2018-07-21T15:15:52.353Z,28.89
2018-07-21T15:18:21.014Z,29.08
2018-07-21T15:20:49.695Z,29.09
2018-07-21T15:23:18.331Z,29.04
2018-07-21T15:25:47.919Z,28.93
2018-07-21T15:28:16.646Z,28.95
2018-07-21T15:30:45.267Z,28.88
2018-07-21T15:33:14.074Z,28.84
2018-07-21T15:35:42.752Z,28.84
2018-07-21T15:38:11.688Z,28.86
2018-07-21T15:40:40.315Z,28.79
2018-07-21T15:43:08.942Z,28.72
2018-07-21T15:45:37.598Z,28.77
2018-07-21T15:48:06.274Z,28.76
2018-07-21T15:50:34.902Z,28.70
2018-07-21T15:53:03.561Z,28.66
2018-07-21T15:55:32.252Z,28.64
2018-07-21T15:58:00.958Z,28.58
2018-07-21T16:00:29.671Z,28.55
2018-07-21T16:02:58.339Z,28.52
2018-07-21T16:05:27.362Z,28.51
2018-07-21T16:07:56.019Z,28.48
2018-07-21T16:10:24.645Z,28.49
2018-07-21T16:12:53.600Z,28.48
2018-07-21T16:15:22.304Z,28.46
2018-07-21T16:17:51.046Z,28.43
2018-07-21T16:20:19.755Z,28.39
2018-07-21T16:22:48.412Z,28.31
2018-07-21T16:25:17.050Z,28.29
2018-07-21T16:27:45.741Z,28.26
2018-07-21T16:30:14.483Z,28.25
2018-07-21T16:32:43.123Z,28.23
2018-07-21T16:35:11.809Z,28.24
2018-07-21T16:37:41.631Z,28.20
2018-07-21T16:40:10.422Z,28.13
2018-07-21T16:42:39.075Z,28.08
2018-07-21T16:45:07.803Z,28.06
2018-07-21T16:47:36.477Z,28.02
2018-07-21T16:50:05.268Z,27.99
2018-07-21T16:52:34.072Z,27.83
2018-07-21T16:55:02.756Z,27.92
2018-07-21T16:57:31.383Z,27.88
2018-07-21T17:00:00.051Z,27.85
2018-07-21T17:02:28.767Z,27.81
2018-07-21T17:04:57.407Z,27.78
2018-07-21T17:07:26.079Z,27.73
2018-07-21T17:09:54.746Z,27.67
2018-07-21T17:12:23.382Z,27.62
2018-07-21T17:14:52.108Z,27.57
2018-07-21T17:17:20.823Z,27.53
2018-07-21T17:19:49.525Z,27.49
2018-07-21T17:22:18.186Z,27.45
2018-07-21T17:24:46.886Z,27.40
2018-07-21T17:27:15.532Z,27.34
2018-07-21T17:29:44.305Z,27.28
2018-07-21T17:32:12.932Z,27.22
2018-07-21T17:34:41.598Z,27.19
2018-07-21T17:37:10.231Z,27.18
2018-07-21T17:39:38.856Z,27.11
2018-07-21T17:42:07.522Z,27.07
2018-07-21T17:44:36.205Z,27.02
2018-07-21T17:47:04.977Z,27.00
2018-07-21T17:49:33.624Z,26.96
2018-07-21T17:52:02.263Z,26.91
2018-07-21T17:54:30.905Z,26.86
2018-07-21T17:56:59.598Z,26.80
2018-07-21T17:59:28.288Z,26.73
2018-07-21T18:01:57.415Z,26.63
2018-07-21T18:04:26.061Z,26.54
2018-07-21T18:06:54.773Z,26.41
2018-07-21T18:09:23.401Z,26.34
2018-07-21T18:11:52.111Z,26.26
2018-07-21T18:14:20.760Z,26.19
2018-07-21T18:16:49.473Z,26.14
2018-07-21T18:19:18.181Z,26.10
2018-07-21T18:21:46.867Z,26.03
2018-07-21T18:24:15.477Z,25.97
2018-07-21T18:26:44.194Z,25.94
2018-07-21T18:29:12.857Z,25.87
2018-07-21T18:31:41.561Z,25.84
2018-07-21T18:34:10.323Z,25.74
2018-07-21T18:36:39.020Z,25.67
2018-07-21T18:39:09.829Z,25.66
2018-07-21T18:41:38.485Z,25.62
2018-07-21T18:44:07.404Z,25.58
2018-07-21T18:46:36.098Z,25.51
2018-07-21T18:49:04.841Z,25.48
2018-07-21T18:51:33.559Z,25.44
2018-07-21T18:54:02.259Z,25.43
2018-07-21T18:56:30.898Z,25.42
2018-07-21T18:58:59.579Z,25.39
2018-07-21T19:01:28.207Z,25.36
2018-07-21T19:03:56.846Z,25.22
2018-07-21T19:06:25.503Z,25.00
2018-07-21T19:08:59.287Z,24.85
2018-07-21T19:11:27.914Z,24.75
2018-07-21T19:13:56.586Z,24.67
2018-07-21T19:16:30.384Z,24.59
2018-07-21T19:18:59.015Z,24.55
2018-07-21T19:21:27.796Z,24.52
2018-07-21T19:23:56.411Z,24.54
2018-07-21T19:26:30.409Z,24.52
2018-07-21T19:28:59.079Z,24.44
2018-07-21T19:31:27.844Z,24.35
2018-07-21T19:33:56.608Z,24.29
2018-07-21T19:36:25.341Z,24.26
2018-07-21T19:38:54.021Z,24.25
2018-07-21T19:41:27.807Z,24.20
2018-07-21T19:43:56.550Z,24.18
2018-07-21T19:46:25.255Z,24.09
2018-07-21T19:48:53.969Z,23.92
2018-07-21T19:51:22.698Z,23.83
2018-07-21T19:53:51.454Z,23.52
2018-07-21T19:56:20.148Z,23.71
2018-07-21T19:58:48.808Z,23.69
2018-07-21T20:01:18.129Z,23.65
2018-07-21T20:03:46.763Z,23.62
2018-07-21T20:06:15.390Z,23.55
2018-07-21T20:08:44.064Z,23.50
2018-07-21T20:11:12.736Z,23.52
2018-07-21T20:13:41.392Z,23.34
2018-07-21T20:16:10.067Z,23.41
2018-07-21T20:18:39.121Z,23.34
2018-07-21T20:21:07.939Z,23.30
2018-07-21T20:23:36.606Z,23.24
2018-07-21T20:26:05.314Z,23.18
2018-07-21T20:28:34.290Z,23.14
2018-07-21T20:31:02.966Z,23.06
2018-07-21T20:33:31.712Z,23.06
2018-07-21T20:36:00.551Z,23.03
2018-07-21T20:38:29.263Z,23.10
2018-07-21T20:40:57.986Z,23.05
2018-07-21T20:43:26.664Z,23.00
2018-07-21T20:45:55.297Z,23.00
2018-07-21T20:48:38.651Z,22.88
2018-07-21T20:51:07.290Z,22.76
2018-07-21T20:53:35.986Z,22.73
2018-07-21T20:56:04.654Z,22.70
2018-07-21T20:58:33.352Z,22.35
2018-07-21T21:01:02.015Z,22.20
2018-07-21T21:03:30.676Z,22.14
2018-07-21T21:05:59.389Z,22.22
2018-07-21T21:08:28.054Z,22.27
2018-07-21T21:10:56.760Z,22.27
2018-07-21T21:13:25.419Z,22.22
2018-07-21T21:15:54.110Z,22.16
2018-07-21T21:18:22.821Z,22.13
2018-07-21T21:20:51.532Z,21.05
2018-07-21T21:23:20.274Z,21.91
2018-07-21T21:25:48.958Z,21.82
2018-07-21T21:28:17.612Z,21.66
2018-07-21T21:30:46.259Z,21.57
2018-07-21T21:33:14.944Z,21.55
2018-07-21T21:35:43.589Z,21.54
2018-07-21T21:38:12.241Z,21.52
2018-07-21T21:40:40.941Z,21.46
2018-07-21T21:43:09.685Z,21.40
2018-07-21T21:45:38.344Z,21.41
2018-07-21T21:48:07.016Z,21.60
2018-07-21T21:50:35.682Z,21.68
2018-07-21T21:53:04.402Z,21.84
2018-07-21T21:55:33.096Z,21.78
2018-07-21T21:58:01.790Z,21.67
2018-07-21T22:00:43.627Z,21.57
2018-07-21T22:03:12.285Z,21.57
2018-07-21T22:05:40.920Z,21.60
2018-07-21T22:08:09.571Z,21.56
2018-07-21T22:10:38.254Z,21.55
2018-07-21T22:13:06.943Z,21.52
2018-07-21T22:15:35.610Z,21.51
2018-07-21T22:18:04.330Z,21.41
2018-07-21T22:20:33.055Z,21.47
2018-07-21T22:23:01.677Z,21.55
2018-07-21T22:25:30.343Z,21.56
2018-07-21T22:27:58.974Z,21.53
2018-07-21T22:30:27.610Z,21.48
2018-07-21T22:32:56.306Z,21.48
2018-07-21T22:35:24.943Z,21.34
2018-07-21T22:37:53.686Z,21.25
2018-07-21T22:40:22.404Z,21.27
2018-07-21T22:42:51.078Z,21.29
2018-07-21T22:45:19.676Z,21.18
2018-07-21T22:47:48.819Z,20.92
2018-07-21T22:50:17.558Z,20.99
2018-07-21T22:52:46.166Z,20.97
2018-07-21T22:55:14.810Z,20.85
2018-07-21T22:57:43.566Z,20.75
2018-07-21T23:00:12.266Z,20.70
2018-07-21T23:02:41.845Z,20.68
2018-07-21T23:05:10.959Z,20.78
2018-07-21T23:07:39.619Z,20.78
2018-07-21T23:10:08.522Z,20.58
2018-07-21T23:12:37.635Z,20.47
2018-07-21T23:15:07.659Z,20.46
2018-07-21T23:17:36.459Z,20.45
2018-07-21T23:20:06.575Z,20.44
2018-07-21T23:22:35.281Z,20.28
2018-07-21T23:25:04.066Z,20.16
2018-07-21T23:27:32.792Z,20.05
2018-07-21T23:30:01.459Z,20.01
2018-07-21T23:32:30.197Z,20.03
2018-07-21T23:34:58.842Z,20.01
2018-07-21T23:37:27.486Z,20.02
2018-07-21T23:39:56.203Z,20.04
2018-07-21T23:42:24.859Z,20.13
2018-07-21T23:44:53.523Z,20.13
2018-07-21T23:47:22.172Z,20.03
2018-07-21T23:49:50.884Z,20.07
2018-07-21T23:52:19.550Z,20.09
2018-07-21T23:54:48.241Z,20.09
2018-07-21T23:57:16.934Z,20.09
2018-07-21T23:59:45.590Z,20.19
